createdAt,value
2019-02-11T00:01:56.084Z,0.93
2019-02-11T00:04:24.966Z,0.70
2019-02-11T00:06:54.268Z,0.80
2019-02-11T00:09:23.192Z,1.17
2019-02-11T00:12:03.404Z,0.93
2019-02-11T00:14:32.298Z,1.20
2019-02-11T00:17:01.178Z,1.17
2019-02-11T00:19:30.060Z,1.30
2019-02-11T00:21:58.934Z,1.17
2019-02-11T00:24:27.877Z,1.17
2019-02-11T00:26:57.146Z,1.40
2019-02-11T00:29:26.411Z,1.37
2019-02-11T00:31:55.674Z,1.30
2019-02-11T00:34:24.581Z,1.50
2019-02-11T00:36:53.491Z,1.70
2019-02-11T00:39:22.363Z,1.20
2019-02-11T00:45:02.423Z,1.33
2019-02-11T00:47:31.311Z,1.80
2019-02-11T00:50:00.533Z,1.43
2019-02-11T00:52:29.415Z,1.30
2019-02-11T00:54:59.114Z,1.33
2019-02-11T00:57:28.408Z,1.47
2019-02-11T00:59:57.331Z,1.40
2019-02-11T01:02:26.191Z,1.37
2019-02-11T01:04:55.116Z,1.37
2019-02-11T01:07:24.431Z,1.87
2019-02-11T01:09:53.372Z,1.43
2019-02-11T01:12:24.324Z,1.63
2019-02-11T01:14:53.239Z,1.80
2019-02-11T01:17:22.118Z,1.63
2019-02-11T01:19:51.043Z,1.80
2019-02-11T01:22:20.001Z,1.80
2019-02-11T01:24:48.895Z,1.60
2019-02-11T01:27:17.834Z,1.23
2019-02-11T01:29:46.755Z,1.50
2019-02-11T01:32:15.665Z,1.90
2019-02-11T01:34:44.966Z,1.90
2019-02-11T01:37:13.877Z,1.60
2019-02-11T01:39:43.241Z,2.03
2019-02-11T01:42:12.101Z,1.47
2019-02-11T01:44:41.018Z,1.40
2019-02-11T01:47:16.458Z,1.90
2019-02-11T01:49:45.751Z,1.83
2019-02-11T01:52:14.623Z,1.73
2019-02-11T01:54:43.504Z,1.73
2019-02-11T01:57:12.414Z,1.63
2019-02-11T01:59:41.324Z,1.70
2019-02-11T02:02:10.235Z,1.50
2019-02-11T02:04:39.143Z,1.83
2019-02-11T02:07:08.035Z,1.83
2019-02-11T02:09:36.960Z,1.60
2019-02-11T02:12:06.183Z,1.40
2019-02-11T02:14:42.067Z,1.83
2019-02-11T02:17:10.971Z,1.73
2019-02-11T02:19:40.252Z,1.80
2019-02-11T02:22:09.260Z,1.97
2019-02-11T02:24:38.136Z,1.70
2019-02-11T02:27:07.464Z,1.90
2019-02-11T02:29:36.355Z,1.50
2019-02-11T02:32:05.257Z,1.80
2019-02-11T02:34:34.146Z,1.70
2019-02-11T02:37:03.058Z,2.00
2019-02-11T02:39:31.918Z,1.60
2019-02-11T02:42:00.812Z,1.70
2019-02-11T02:44:30.049Z,1.60
2019-02-11T02:46:58.943Z,1.70
2019-02-11T02:49:27.853Z,2.00
2019-02-11T02:51:56.847Z,2.40
2019-02-11T02:54:25.698Z,1.77
2019-02-11T02:56:54.615Z,2.23
2019-02-11T02:59:23.498Z,1.70
2019-02-11T03:01:53.205Z,2.03
2019-02-11T03:04:22.119Z,2.00
2019-02-11T03:06:51.006Z,2.40
2019-02-11T03:09:28.831Z,1.60
2019-02-11T03:11:57.771Z,1.57
2019-02-11T03:14:26.692Z,1.80
2019-02-11T03:16:55.567Z,1.40
2019-02-11T03:19:24.475Z,1.20
2019-02-11T03:21:53.381Z,0.77
2019-02-11T03:24:22.238Z,1.10
2019-02-11T03:26:51.213Z,1.40
2019-02-11T03:29:20.059Z,1.23
2019-02-11T03:31:49.728Z,1.73
2019-02-11T03:34:18.649Z,1.40
2019-02-11T03:40:09.892Z,1.90
2019-02-11T03:42:38.786Z,1.50
2019-02-11T03:45:08.164Z,2.10
2019-02-11T03:47:37.444Z,2.47
2019-02-11T03:50:06.296Z,2.13
2019-02-11T03:52:35.616Z,2.60
2019-02-11T03:55:04.669Z,3.00
2019-02-11T03:57:33.599Z,2.93
2019-02-11T04:00:02.483Z,3.53
2019-02-11T04:02:31.718Z,3.30
2019-02-11T04:05:00.657Z,3.67
2019-02-11T04:07:29.902Z,3.43
2019-02-11T04:09:58.750Z,4.20
2019-02-11T04:12:27.647Z,3.10
2019-02-11T04:15:13.871Z,4.00
2019-02-11T04:20:53.549Z,3.30
2019-02-11T04:23:22.905Z,3.73
2019-02-11T04:26:04.092Z,3.90
2019-02-11T04:28:32.978Z,4.10
2019-02-11T04:31:22.651Z,3.23
2019-02-11T04:33:51.598Z,3.90
2019-02-11T04:36:20.539Z,3.40
2019-02-11T04:39:17.297Z,3.00
2019-02-11T04:41:46.170Z,3.63
2019-02-11T04:44:15.062Z,3.77
2019-02-11T04:46:44.328Z,3.23
2019-02-11T04:49:13.219Z,3.10
2019-02-11T04:51:42.134Z,3.30
2019-02-11T04:54:11.385Z,3.90
2019-02-11T04:57:17.135Z,3.53
2019-02-11T04:59:46.359Z,3.83
2019-02-11T05:02:15.231Z,3.37
2019-02-11T05:04:44.164Z,3.47
2019-02-11T05:07:13.048Z,3.50
2019-02-11T05:09:41.951Z,2.80
2019-02-11T05:12:10.827Z,3.50
2019-02-11T05:14:43.764Z,3.03
2019-02-11T05:17:11.491Z,3.63
2019-02-11T05:23:03.384Z,3.27
2019-02-11T05:25:32.260Z,3.47
2019-02-11T05:28:01.172Z,3.00
2019-02-11T05:30:30.059Z,3.40
2019-02-11T05:32:59.159Z,3.50
2019-02-11T05:35:28.079Z,3.07
2019-02-11T05:37:57.376Z,3.10
2019-02-11T05:40:26.300Z,2.93
2019-02-11T05:42:57.256Z,3.60
2019-02-11T05:45:26.168Z,3.50
2019-02-11T05:51:17.955Z,3.77
2019-02-11T05:53:51.313Z,4.00
2019-02-11T06:02:42.716Z,3.50
2019-02-11T06:05:11.581Z,4.50
2019-02-11T06:07:40.661Z,3.10
2019-02-11T06:10:10.081Z,2.90
2019-02-11T06:12:38.953Z,4.13
2019-02-11T06:15:07.893Z,3.10
2019-02-11T06:17:36.767Z,3.40
2019-02-11T06:23:15.940Z,3.50
2019-02-11T06:25:45.185Z,3.40
2019-02-11T06:28:14.071Z,2.97
2019-02-11T06:30:43.281Z,2.40
2019-02-11T06:33:12.192Z,3.20
2019-02-11T06:35:41.461Z,2.60
2019-02-11T06:38:10.368Z,2.67
2019-02-11T06:40:39.242Z,3.23
2019-02-11T06:43:08.195Z,3.53
2019-02-11T06:45:37.427Z,2.90
2019-02-11T06:48:06.320Z,2.70
2019-02-11T06:50:39.620Z,3.23
2019-02-11T06:53:08.831Z,3.40
2019-02-11T06:55:37.707Z,3.73
2019-02-11T06:58:06.627Z,4.07
2019-02-11T07:00:35.862Z,3.80
2019-02-11T07:03:05.128Z,3.43
2019-02-11T07:05:34.601Z,3.20
2019-02-11T07:08:03.480Z,3.70
2019-02-11T07:10:32.411Z,3.30
2019-02-11T07:13:04.369Z,3.93
2019-02-11T07:15:33.867Z,3.43
2019-02-11T07:18:02.943Z,3.20
2019-02-11T07:20:32.152Z,4.40
2019-02-11T07:23:24.067Z,3.60
2019-02-11T07:25:52.947Z,4.30
2019-02-11T07:28:21.877Z,3.50
2019-02-11T07:30:50.771Z,3.60
2019-02-11T07:33:26.636Z,3.50
2019-02-11T07:35:55.555Z,4.33
2019-02-11T07:38:24.790Z,3.40
2019-02-11T07:40:54.021Z,2.73
2019-02-11T07:43:45.147Z,3.80
2019-02-11T07:46:18.082Z,3.63
2019-02-11T07:48:47.291Z,3.23
2019-02-11T07:51:16.585Z,3.30
2019-02-11T07:53:46.112Z,2.83
2019-02-11T07:56:14.956Z,3.03
2019-02-11T07:58:43.839Z,2.90
2019-02-11T08:01:12.769Z,3.37
2019-02-11T08:03:49.922Z,3.30
2019-02-11T08:06:18.777Z,3.27
2019-02-11T08:08:47.700Z,3.10
2019-02-11T08:11:16.578Z,3.63
2019-02-11T08:13:45.847Z,3.70
2019-02-11T08:16:14.750Z,3.93
2019-02-11T08:18:44.053Z,3.20
2019-02-11T08:21:13.300Z,3.20
2019-02-11T08:23:42.448Z,3.00
2019-02-11T08:26:11.442Z,2.60
2019-02-11T08:28:40.343Z,2.70
2019-02-11T08:31:09.552Z,3.63
2019-02-11T08:33:38.775Z,2.87
2019-02-11T08:36:07.677Z,3.40
2019-02-11T08:38:36.606Z,2.77
2019-02-11T08:41:07.921Z,3.00
2019-02-11T08:43:36.827Z,2.77
2019-02-11T08:46:05.737Z,2.53
2019-02-11T08:48:34.633Z,2.73
2019-02-11T08:51:03.515Z,2.63
2019-02-11T08:53:32.417Z,2.20
2019-02-11T08:56:01.325Z,2.10
2019-02-11T08:58:30.398Z,2.00
2019-02-11T09:00:59.241Z,2.40
2019-02-11T09:03:28.164Z,1.87
2019-02-11T09:05:57.445Z,2.30
2019-02-11T09:08:26.399Z,1.90
2019-02-11T09:10:55.624Z,2.10
2019-02-11T09:13:24.538Z,1.63
2019-02-11T09:15:55.314Z,1.73
2019-02-11T09:18:23.991Z,1.70
2019-02-11T09:21:29.522Z,1.87
2019-02-11T09:23:58.443Z,1.90
2019-02-11T09:26:27.344Z,1.93
2019-02-11T09:28:56.248Z,1.33
2019-02-11T09:31:25.121Z,2.13
2019-02-11T09:34:08.482Z,1.80
2019-02-11T09:36:38.099Z,1.83
2019-02-11T09:39:26.338Z,1.70
2019-02-11T09:41:55.263Z,1.83
2019-02-11T09:44:29.656Z,2.00
2019-02-11T09:46:55.317Z,1.80
2019-02-11T09:49:24.219Z,2.17
2019-02-11T09:51:53.581Z,1.83
2019-02-11T09:54:22.467Z,1.80
2019-02-11T09:56:51.733Z,2.13
2019-02-11T09:59:21.135Z,1.97
2019-02-11T10:01:50.028Z,2.00
2019-02-11T10:04:32.030Z,1.90
2019-02-11T10:07:01.340Z,2.07
2019-02-11T10:09:31.510Z,2.37
2019-02-11T10:12:00.428Z,1.97
2019-02-11T10:14:30.159Z,2.47
2019-02-11T10:16:59.354Z,2.53
2019-02-11T10:19:28.341Z,2.03
2019-02-11T10:21:57.212Z,1.97
2019-02-11T10:24:26.164Z,1.93
2019-02-11T10:26:55.060Z,1.47
2019-02-11T10:29:23.928Z,2.10
2019-02-11T10:31:53.204Z,2.00
2019-02-11T10:34:22.110Z,2.60
2019-02-11T10:36:51.047Z,2.30
2019-02-11T10:39:19.931Z,2.03
2019-02-11T10:41:48.835Z,1.87
2019-02-11T10:44:17.764Z,1.70
2019-02-11T10:46:46.647Z,1.90
2019-02-11T10:49:15.573Z,2.40
2019-02-11T10:51:44.472Z,2.00
2019-02-11T10:54:13.366Z,2.63
2019-02-11T10:56:42.594Z,2.10
2019-02-11T10:59:11.503Z,1.70
2019-02-11T11:01:40.404Z,2.20
2019-02-11T11:04:20.481Z,2.73
2019-02-11T11:06:49.367Z,2.37
2019-02-11T11:09:18.877Z,2.17
2019-02-11T11:11:48.063Z,2.93
2019-02-11T11:14:17.490Z,2.73
2019-02-11T11:16:46.414Z,2.20
2019-02-11T11:19:15.308Z,2.27
2019-02-11T11:21:44.663Z,2.57
2019-02-11T11:24:13.539Z,2.63
2019-02-11T11:26:42.859Z,2.70
2019-02-11T11:29:11.746Z,3.13
2019-02-11T11:31:41.039Z,3.37
2019-02-11T11:34:09.929Z,2.53
2019-02-11T11:36:38.806Z,2.83
2019-02-11T11:39:14.557Z,2.70
2019-02-11T11:41:44.163Z,2.70
2019-02-11T11:44:13.888Z,2.00
2019-02-11T11:46:47.131Z,2.07
2019-02-11T11:49:32.360Z,1.97
2019-02-11T11:52:01.252Z,2.20
2019-02-11T11:54:30.133Z,2.10
2019-02-11T11:56:59.634Z,2.63
2019-02-11T11:59:28.577Z,2.53
2019-02-11T12:01:57.480Z,2.30
2019-02-11T12:04:26.831Z,2.70
2019-02-11T12:06:55.744Z,2.17
2019-02-11T12:09:24.613Z,2.47
2019-02-11T12:11:59.640Z,2.50
2019-02-11T12:14:28.509Z,2.43
2019-02-11T12:17:02.474Z,2.30
2019-02-11T12:19:43.702Z,2.27
2019-02-11T12:22:13.376Z,2.97
2019-02-11T12:24:42.506Z,2.30
2019-02-11T12:27:11.822Z,2.10
2019-02-11T12:29:40.690Z,2.60
2019-02-11T12:32:09.598Z,2.07
2019-02-11T12:34:39.192Z,2.80
2019-02-11T12:37:09.403Z,1.90
2019-02-11T12:39:38.657Z,1.77
2019-02-11T12:42:07.490Z,2.00
2019-02-11T12:44:36.433Z,2.53
2019-02-11T12:47:15.301Z,2.60
2019-02-11T12:49:44.432Z,2.83
2019-02-11T12:52:13.309Z,2.60
2019-02-11T12:54:42.190Z,2.33
2019-02-11T12:57:11.084Z,2.30
2019-02-11T12:59:39.970Z,2.43
2019-02-11T13:02:17.701Z,2.20
2019-02-11T13:04:46.580Z,3.33
2019-02-11T13:07:16.394Z,2.97
2019-02-11T13:09:45.398Z,1.97
2019-02-11T13:12:14.294Z,1.83
2019-02-11T13:14:43.557Z,2.20
2019-02-11T13:17:15.928Z,2.90
2019-02-11T13:19:43.413Z,2.70
2019-02-11T13:22:12.776Z,2.10
2019-02-11T13:24:42.026Z,2.27
2019-02-11T13:27:11.078Z,2.80
2019-02-11T13:29:40.295Z,2.27
2019-02-11T13:32:32.159Z,2.13
2019-02-11T13:35:01.566Z,2.00
2019-02-11T13:37:30.446Z,2.30
2019-02-11T13:39:59.349Z,2.90
2019-02-11T13:42:28.239Z,2.87
2019-02-11T13:44:57.133Z,2.00
2019-02-11T13:47:26.073Z,1.90
2019-02-11T13:49:54.951Z,2.20
2019-02-11T13:52:23.833Z,2.57
2019-02-11T13:54:53.491Z,1.73
2019-02-11T13:57:23.078Z,2.40
2019-02-11T13:59:52.047Z,2.40
2019-02-11T14:02:20.947Z,2.33
2019-02-11T14:04:49.912Z,2.60
2019-02-11T14:07:19.357Z,3.10
2019-02-11T14:09:48.272Z,2.10
2019-02-11T14:12:17.256Z,2.03
2019-02-11T14:14:46.151Z,2.67
2019-02-11T14:17:16.297Z,2.37
2019-02-11T14:19:45.840Z,1.80
2019-02-11T14:22:18.558Z,2.20
2019-02-11T14:24:48.229Z,2.33
2019-02-11T14:27:17.776Z,1.80
2019-02-11T14:29:47.316Z,2.00
2019-02-11T14:32:16.862Z,2.43
2019-02-11T14:34:46.401Z,2.53
2019-02-11T14:37:15.966Z,2.27
2019-02-11T14:39:46.512Z,2.67
2019-02-11T14:42:16.034Z,2.57
2019-02-11T14:45:01.021Z,2.07
2019-02-11T14:47:44.442Z,1.60
2019-02-11T14:50:13.441Z,1.77
2019-02-11T14:52:42.911Z,1.80
2019-02-11T14:55:12.653Z,1.90
2019-02-11T14:57:53.971Z,1.70
2019-02-11T15:00:23.492Z,3.23
2019-02-11T15:02:53.426Z,1.90
2019-02-11T15:05:23.069Z,2.20
2019-02-11T15:07:53.069Z,2.07
2019-02-11T15:10:22.710Z,1.90
2019-02-11T15:12:52.572Z,1.50
2019-02-11T15:15:22.340Z,1.90
2019-02-11T15:17:52.300Z,2.00
2019-02-11T15:20:22.199Z,1.63
2019-02-11T15:22:51.725Z,2.50
2019-02-11T15:25:21.223Z,2.27
2019-02-11T15:28:41.851Z,1.63
2019-02-11T15:31:11.380Z,2.10
2019-02-11T15:33:40.989Z,2.13
2019-02-11T15:36:11.258Z,1.87
2019-02-11T15:38:41.702Z,1.63
2019-02-11T15:41:21.443Z,1.80
2019-02-11T15:43:50.996Z,1.67
2019-02-11T15:46:21.070Z,1.90
2019-02-11T15:48:51.066Z,2.50
2019-02-11T15:51:20.647Z,1.70
2019-02-11T15:53:51.233Z,1.97
2019-02-11T15:56:20.785Z,2.40
2019-02-11T15:58:50.357Z,1.80
2019-02-11T16:01:19.857Z,2.17
2019-02-11T16:03:49.442Z,2.50
2019-02-11T16:06:56.182Z,2.97
2019-02-11T16:09:25.783Z,2.47
2019-02-11T16:12:03.566Z,2.37
2019-02-11T16:14:33.610Z,2.40
2019-02-11T16:17:03.536Z,2.20
2019-02-11T16:19:33.364Z,2.80
2019-02-11T16:22:11.252Z,2.70
2019-02-11T16:24:40.760Z,2.70
2019-02-11T16:27:10.674Z,3.33
2019-02-11T16:29:40.896Z,3.47
2019-02-11T16:32:10.420Z,3.03
2019-02-11T16:35:35.715Z,2.73
2019-02-11T16:38:05.240Z,2.30
2019-02-11T16:40:35.248Z,2.87
2019-02-11T16:43:09.868Z,2.77
2019-02-11T16:45:39.446Z,2.53
2019-02-11T16:48:09.580Z,3.30
2019-02-11T16:50:39.096Z,2.70
2019-02-11T16:53:09.135Z,2.90
2019-02-11T16:55:50.536Z,2.53
2019-02-11T16:58:20.268Z,2.87
2019-02-11T17:00:50.748Z,2.50
2019-02-11T17:03:20.388Z,2.80
2019-02-11T17:05:49.987Z,3.20
2019-02-11T17:08:25.401Z,2.57
2019-02-11T17:10:57.141Z,3.27
2019-02-11T17:13:29.112Z,2.53
2019-02-11T17:15:59.218Z,3.53
2019-02-11T17:22:04.401Z,2.83
2019-02-11T17:24:45.066Z,2.80
2019-02-11T17:30:54.490Z,3.47
2019-02-11T17:33:38.732Z,3.20
2019-02-11T17:36:11.576Z,2.90
2019-02-11T17:38:41.171Z,3.33
2019-02-11T17:41:21.989Z,3.20
2019-02-11T17:44:08.662Z,3.07
2019-02-11T17:46:53.775Z,3.10
2019-02-11T17:49:45.062Z,2.80
2019-02-11T17:52:14.883Z,2.73
2019-02-11T17:55:05.339Z,2.33
2019-02-11T17:57:41.111Z,3.03
2019-02-11T18:00:25.643Z,2.80
2019-02-11T18:02:55.212Z,2.77
2019-02-11T18:05:24.779Z,3.10
2019-02-11T18:07:54.348Z,3.20
2019-02-11T18:10:24.279Z,2.90
2019-02-11T18:12:58.690Z,2.90
2019-02-11T18:15:28.253Z,2.80
2019-02-11T18:17:58.284Z,2.90
2019-02-11T18:20:27.817Z,3.10
2019-02-11T18:22:57.374Z,2.80
2019-02-11T18:25:42.203Z,3.00
2019-02-11T18:28:15.508Z,3.30
2019-02-11T18:31:44.468Z,2.87
2019-02-11T18:34:14.002Z,2.80
2019-02-11T18:36:43.889Z,3.87
2019-02-11T18:39:14.377Z,3.27
2019-02-11T18:41:43.899Z,3.73
2019-02-11T18:44:13.427Z,3.80
2019-02-11T18:46:47.560Z,5.40
2019-02-11T18:49:17.117Z,3.67
2019-02-11T18:51:46.639Z,3.40
2019-02-11T18:54:16.255Z,4.80
2019-02-11T18:56:46.982Z,6.23
2019-02-11T18:59:24.389Z,7.03
2019-02-11T19:01:48.373Z,11.47
2019-02-11T19:04:17.910Z,6.40
2019-02-11T19:06:48.430Z,4.63
2019-02-11T19:09:19.091Z,3.43
2019-02-11T19:11:48.965Z,3.13
2019-02-11T19:14:19.627Z,3.10
2019-02-11T19:16:49.164Z,3.13
2019-02-11T19:19:21.165Z,2.93
2019-02-11T19:22:48.598Z,2.50
2019-02-11T19:25:20.283Z,4.83
2019-02-11T19:27:49.883Z,4.00
2019-02-11T19:30:25.316Z,3.40
2019-02-11T19:32:55.252Z,3.47
2019-02-11T19:35:24.798Z,4.10
2019-02-11T19:38:26.595Z,4.40
2019-02-11T19:40:56.153Z,4.20
2019-02-11T19:43:25.725Z,3.97
2019-02-11T19:45:55.305Z,3.90
2019-02-11T19:48:25.090Z,3.90
2019-02-11T19:51:00.464Z,3.53
2019-02-11T19:53:30.000Z,3.90
2019-02-11T19:55:59.589Z,2.90
2019-02-11T19:59:33.863Z,2.63
2019-02-11T20:02:03.492Z,3.30
2019-02-11T20:04:33.068Z,3.30
2019-02-11T20:07:02.608Z,3.33
2019-02-11T20:09:33.133Z,2.93
2019-02-11T20:12:04.236Z,3.50
2019-02-11T20:14:33.796Z,3.57
2019-02-11T20:17:05.509Z,3.30
2019-02-11T20:19:35.251Z,2.90
2019-02-11T20:22:07.034Z,2.50
2019-02-11T20:24:36.558Z,2.80
2019-02-11T20:27:06.472Z,2.77
2019-02-11T20:33:17.264Z,2.73
2019-02-11T20:35:47.308Z,3.70
2019-02-11T20:38:16.937Z,2.70
2019-02-11T20:40:46.990Z,3.10
2019-02-11T20:43:16.931Z,2.90
2019-02-11T20:46:13.824Z,2.40
2019-02-11T20:48:55.388Z,3.50
2019-02-11T20:51:29.759Z,3.67
2019-02-11T20:54:08.394Z,4.00
2019-02-11T20:56:38.961Z,4.53
2019-02-11T20:59:18.325Z,4.70
2019-02-11T21:01:48.039Z,5.60
2019-02-11T21:04:17.096Z,5.60
2019-02-11T21:06:46.068Z,5.00
2019-02-11T21:09:23.952Z,4.50
2019-02-11T21:12:02.154Z,5.03
2019-02-11T21:14:32.467Z,5.50
2019-02-11T21:17:01.391Z,5.40
2019-02-11T21:19:30.291Z,5.70
2019-02-11T21:22:08.406Z,4.60
2019-02-11T21:24:37.715Z,4.33
2019-02-11T21:27:07.192Z,4.20
2019-02-11T21:29:43.430Z,4.00
2019-02-11T21:32:12.343Z,3.70
2019-02-11T21:34:41.229Z,3.30
2019-02-11T21:37:31.035Z,3.40
2019-02-11T21:40:00.003Z,3.47
2019-02-11T21:42:28.893Z,3.50
2019-02-11T21:45:34.281Z,2.43
2019-02-11T21:48:27.658Z,2.60
2019-02-11T21:50:56.722Z,2.80
2019-02-11T21:56:35.569Z,2.40
2019-02-11T21:59:04.850Z,2.77
2019-02-11T22:01:34.119Z,2.47
2019-02-11T22:04:03.003Z,2.53
2019-02-11T22:06:31.911Z,3.03
2019-02-11T22:09:00.994Z,2.70
2019-02-11T22:11:29.904Z,2.80
2019-02-11T22:13:59.167Z,3.03
2019-02-11T22:16:28.046Z,2.60
2019-02-11T22:18:56.942Z,2.80
2019-02-11T22:21:25.816Z,3.30
2019-02-11T22:24:17.561Z,3.40
2019-02-11T22:26:46.442Z,3.20
2019-02-11T22:29:15.356Z,3.80
2019-02-11T22:31:44.298Z,3.50
2019-02-11T22:43:44.351Z,2.80
2019-02-11T22:46:13.667Z,3.63
2019-02-11T22:48:42.582Z,3.60
2019-02-11T22:51:11.547Z,2.63
2019-02-11T22:53:40.430Z,3.87
2019-02-11T22:56:09.643Z,3.60
2019-02-11T22:58:38.570Z,3.60
2019-02-11T23:01:08.044Z,4.37
2019-02-11T23:03:39.120Z,3.50
2019-02-11T23:06:08.025Z,3.60
2019-02-11T23:08:36.972Z,4.10
2019-02-11T23:11:05.861Z,4.30
2019-02-11T23:13:34.741Z,4.47
2019-02-11T23:16:03.688Z,3.87
2019-02-11T23:18:32.592Z,4.10
2019-02-11T23:21:01.504Z,4.57
2019-02-11T23:23:30.711Z,4.97
2019-02-11T23:25:59.609Z,4.50
2019-02-11T23:28:28.920Z,5.40
2019-02-11T23:30:57.807Z,5.93
2019-02-11T23:33:26.748Z,5.93
2019-02-11T23:35:55.925Z,5.97
2019-02-11T23:38:24.811Z,6.77
2019-02-11T23:40:53.759Z,6.57
2019-02-11T23:43:22.695Z,7.73
2019-02-11T23:45:51.620Z,6.97
2019-02-11T23:48:20.524Z,6.90
2019-02-11T23:50:49.408Z,6.83
2019-02-11T23:53:18.302Z,6.30
2019-02-11T23:55:47.216Z,7.97
2019-02-11T23:58:26.149Z,6.83
